Time;durP1;ratioP1;P1;durP2;ratioP2;P2;SDS_P1;SDS_P2;PMS_P1;PMS_P2;Temp;Humidity;BMP_temperature;BMP_pressure;BME280_temperature;BME280_humidity;BME280_pressure;Samples;Min_cycle;Max_cycle;Signal;HPM_P1;HPM_P2
2022/03/22 00:02:04;;;;;;;61.65;27.45;;;;;;;-0.42;49.30;102351.39;2157330;80;21006;-78
2022/03/22 00:05:06;;;;;;;61.35;27.13;;;;;;;-0.39;49.51;102347.42;2153286;81;20998;-77
2022/03/22 00:08:09;;;;;;;59.73;24.90;;;;;;;-0.41;49.62;102350.52;2156346;81;21033;-77
2022/03/22 00:11:11;;;;;;;58.70;26.82;;;;;;;-0.41;49.73;102345.30;2166086;80;21046;-76
2022/03/22 00:14:14;;;;;;;66.92;27.67;;;;;;;-0.34;50.06;102345.09;2143993;81;21025;-78
2022/03/22 00:17:15;;;;;;;;;;;;;;;-0.21;50.23;102348.20;2159661;80;21807;-77
2022/03/22 00:20:17;;;;;;;67.72;28.07;;;;;;;-0.09;50.25;102346.54;2154271;81;20154;-77
2022/03/22 00:23:24;;;;;;;62.55;29.15;;;;;;;-0.01;50.19;102350.24;2158963;81;20979;-78
2022/03/22 00:26:21;;;;;;;58.38;26.02;;;;;;;0.05;50.14;102348.76;2124105;81;20966;-78
2022/03/22 00:29:23;;;;;;;59.38;26.17;;;;;;;0.13;50.01;102339.41;2139894;81;21032;-77
2022/03/22 00:32:24;;;;;;;57.95;28.80;;;;;;;0.08;50.12;102339.52;2144968;81;21054;-76
2022/03/22 00:35:29;;;;;;;70.25;29.57;;;;;;;-0.04;50.31;102335.52;2140517;81;20986;-78
2022/03/22 00:38:31;;;;;;;67.53;31.10;;;;;;;-0.16;50.80;102337.19;2143810;81;20978;-78
2022/03/22 00:41:32;;;;;;;72.50;32.50;;;;;;;-0.26;51.60;102341.80;2143683;81;21009;-76
2022/03/22 00:44:32;;;;;;;;;;;;;;;-0.27;51.56;102335.34;2148452;81;21038;-78
2022/03/22 00:47:34;;;;;;;65.03;30.55;;;;;;;-0.32;51.99;102341.97;2141817;81;20187;-77
2022/03/22 00:50:40;;;;;;;70.87;29.72;;;;;;;-0.47;52.32;102338.04;2144089;81;20978;-78
2022/03/22 00:53:42;;;;;;;63.65;28.87;;;;;;;-0.59;52.36;102337.08;2142438;81;20999;-77
2022/03/22 00:56:43;;;;;;;68.42;28.70;;;;;;;-0.57;52.54;102337.87;2154273;81;21011;-77
2022/03/22 01:00:04;;;;;;;;;;;;;;;-0.53;52.40;102338.21;2152402;81;20970;-76
2022/03/22 01:03:15;;;;;;;;;;;;;;;-0.63;52.38;102331.52;2147189;81;20114;-77
2022/03/22 01:06:17;;;;;;;70.40;27.52;;;;;;;-0.67;52.26;102337.73;2156240;80;20421;-77
2022/03/22 01:09:18;;;;;;;61.00;27.70;;;;;;;-0.71;52.18;102343.90;2139050;81;21018;-77
2022/03/22 01:12:19;;;;;;;74.22;32.00;;;;;;;-0.71;52.12;102338.23;2141739;81;20994;-77
2022/03/22 01:15:32;;;;;;;88.52;35.78;;;;;;;-0.73;52.17;102338.74;2141955;81;21043;-77
2022/03/22 01:18:30;;;;;;;125.90;42.13;;;;;;;-0.88;52.17;102339.58;2143793;81;22229;-76
2022/03/22 01:21:32;;;;;;;61.60;27.58;;;;;;;-0.93;52.31;102331.44;2152164;81;21644;-77
2022/03/22 01:24:33;;;;;;;57.30;25.27;;;;;;;-0.94;52.42;102336.22;2149465;81;21001;-76
2022/03/22 01:27:36;;;;;;;57.43;25.02;;;;;;;-0.98;52.56;102331.14;2152047;81;21049;-77
2022/03/22 01:30:38;;;;;;;55.50;25.97;;;;;;;-0.97;52.89;102326.33;2158176;81;21004;-78
2022/03/22 01:33:39;;;;;;;54.67;25.85;;;;;;;-0.97;52.75;102325.88;2150931;81;20985;-76
2022/03/22 01:36:40;;;;;;;;;;;;;;;-0.90;52.91;102318.78;2152324;80;22274;-78
2022/03/22 01:39:41;;;;;;;57.93;27.55;;;;;;;-0.87;52.77;102312.18;2153891;80;20136;-77
2022/03/22 01:42:42;;;;;;;64.82;29.10;;;;;;;-0.85;53.14;102323.85;2155716;81;21072;-78
2022/03/22 01:45:47;;;;;;;61.68;29.00;;;;;;;-0.87;53.32;102309.57;2156933;81;20989;-76
2022/03/22 01:48:48;;;;;;;56.42;28.47;;;;;;;-0.88;53.78;102316.11;2157147;80;21581;-77
2022/03/22 01:51:49;;;;;;;;;;;;;;;-0.91;54.21;102313.98;2152404;81;20951;-78
2022/03/22 01:54:55;;;;;;;60.92;29.57;;;;;;;-0.87;54.26;102310.88;2159168;81;20125;-77
2022/03/22 01:57:56;;;;;;;65.28;31.02;;;;;;;-0.84;54.20;102308.64;2154450;81;21065;-77
2022/03/22 02:05:51;;;;;;;68.22;31.42;;;;;;;-0.94;54.23;102307.55;2156071;81;21041;-77
2022/03/22 02:07:21;;;;;;;65.28;31.23;;;;;;;-0.92;54.26;102300.55;2154246;81;21039;-79
2022/03/22 02:10:22;;;;;;;64.10;28.62;;;;;;;-0.85;53.89;102295.17;2160415;81;21049;-79
2022/03/22 02:13:23;;;;;;;66.77;30.62;;;;;;;-0.81;53.87;102296.83;2157778;81;21018;-80
2022/03/22 02:16:24;;;;;;;;;;;;;;;-0.80;53.88;102297.22;2160017;81;21062;-80
2022/03/22 02:19:25;;;;;;;;;;;;;;;-0.89;53.87;102294.86;2155742;80;20160;-79
2022/03/22 02:22:38;;;;;;;74.22;35.40;;;;;;;-0.94;54.15;102294.52;2150164;81;20138;-80
2022/03/22 02:25:39;;;;;;;70.10;32.63;;;;;;;-0.94;54.22;102278.88;2101770;82;21029;-78
2022/03/22 02:28:42;;;;;;;71.02;32.60;;;;;;;-0.99;54.49;102284.66;2102677;83;21079;-80
2022/03/22 02:31:43;;;;;;;66.95;32.45;;;;;;;-1.04;54.90;102300.88;2106707;83;21023;-80
2022/03/22 02:34:45;;;;;;;70.92;31.65;;;;;;;-1.14;55.11;102294.18;2109695;83;21107;-80
2022/03/22 02:37:47;;;;;;;;;;;;;;;-1.24;55.51;102297.48;2161258;81;21006;-80
2022/03/22 02:40:48;;;;;;;78.80;32.95;;;;;;;-1.22;55.57;102297.42;2163624;81;20466;-80
2022/03/22 02:43:50;;;;;;;69.70;32.65;;;;;;;-1.22;55.94;102298.72;2161762;81;20994;-78
2022/03/22 02:46:52;;;;;;;64.95;30.65;;;;;;;-1.17;55.60;102292.95;2157762;81;20982;-79
2022/03/22 02:49:53;;;;;;;69.42;33.15;;;;;;;-1.17;55.46;102298.17;2154720;81;21050;-78
2022/03/22 02:52:54;;;;;;;;;;;;;;;-1.17;55.39;102300.77;2158903;81;20982;-78
2022/03/22 02:55:55;;;;;;;63.78;31.87;;;;;;;-1.17;55.42;102300.77;2154937;80;20210;-80
2022/03/22 02:58:56;;;;;;;;;;;;;;;-1.22;55.35;102289.61;2153945;81;21071;-80
2022/03/22 03:01:58;;;;;;;112.17;46.75;;;;;;;-1.25;55.54;102300.11;2161661;81;20155;-79
2022/03/22 03:04:59;;;;;;;115.42;47.70;;;;;;;-1.28;55.56;102295.82;2155085;81;21526;-79
2022/03/22 03:08:02;;;;;;;97.40;39.90;;;;;;;-1.34;55.35;102300.34;2165432;80;21054;-78
2022/03/22 03:11:04;;;;;;;113.47;42.95;;;;;;;-1.47;55.52;102303.21;2161668;81;21021;-79
2022/03/22 03:17:26;;;;;;;79.58;35.05;;;;;;;-1.54;55.93;102307.32;2048276;85;21474;-78
2022/03/22 03:20:28;;;;;;;;;;;;;;;-1.72;56.30;102316.38;2051560;85;21165;-79
2022/03/22 03:23:29;;;;;;;84.65;38.92;;;;;;;-1.84;56.69;102308.41;2135128;81;20138;-79
2022/03/22 03:26:30;;;;;;;86.12;41.18;;;;;;;-1.85;56.98;102310.16;2152235;80;21536;-80
2022/03/22 03:29:32;;;;;;;93.60;43.60;;;;;;;-1.82;56.93;102311.84;2138387;81;21017;-79
2022/03/22 03:32:34;;;;;;;107.90;49.67;;;;;;;-1.74;57.14;102319.04;2145381;81;21041;-78
2022/03/22 03:35:35;;;;;;;94.67;45.33;;;;;;;-1.67;57.24;102312.79;2137917;81;21453;-78
2022/03/22 03:38:41;;;;;;;;;;;;;;;-1.57;57.09;102308.24;2147833;81;21037;-79
2022/03/22 03:41:56;;;;;;;89.45;39.92;;;;;;;-1.47;56.86;102307.12;2139723;80;20207;-79
2022/03/22 03:48:18;;;;;;;83.75;37.65;;;;;;;-1.47;56.67;102308.42;2140080;81;20986;-80
2022/03/22 03:51:19;;;;;;;75.70;35.23;;;;;;;-1.50;56.67;102308.49;2138483;81;21555;-78
2022/03/22 03:54:20;;;;;;;76.20;36.23;;;;;;;-1.50;56.63;102306.34;2145850;81;21060;-79
2022/03/22 03:57:23;;;;;;;67.03;33.95;;;;;;;-1.50;56.47;102307.19;2146820;80;20959;-80
2022/03/22 04:00:25;;;;;;;79.10;37.38;;;;;;;-1.45;56.30;102309.25;2146613;81;21053;-78
2022/03/22 04:03:26;;;;;;;84.25;37.40;;;;;;;-1.43;56.42;102307.47;2141037;81;21049;-79
2022/03/22 04:06:27;;;;;;;;;;;;;;;-1.45;56.24;102314.91;2151400;81;21487;-77
2022/03/22 04:09:28;;;;;;;77.35;34.40;;;;;;;-1.51;56.24;102317.66;2139969;81;20116;-79
2022/03/22 04:12:31;;;;;;;75.55;34.85;;;;;;;-1.57;56.20;102313.45;2140180;81;21104;-77
2022/03/22 04:15:32;;;;;;;74.37;33.15;;;;;;;-1.60;56.40;102325.24;2144969;81;21624;-78
2022/03/22 04:18:34;;;;;;;75.30;34.85;;;;;;;-1.69;56.48;102321.52;2138329;81;20948;-79
2022/03/22 04:21:37;;;;;;;72.90;35.28;;;;;;;-1.76;56.71;102319.96;2139204;81;21863;-79
2022/03/22 04:24:38;;;;;;;80.07;36.93;;;;;;;-1.78;56.61;102323.88;2147704;81;20994;-79
2022/03/22 04:34:19;;;;;;;72.22;35.30;;;;;;;-1.77;56.77;102331.23;2146364;81;21010;-79
2022/03/22 04:37:20;;;;;;;82.15;37.70;;;;;;;-1.81;56.86;102328.70;2141478;81;21045;-78
2022/03/22 04:40:22;;;;;;;74.35;35.43;;;;;;;-1.82;56.90;102332.21;2149583;80;20998;-79
2022/03/22 04:43:23;;;;;;;75.57;35.10;;;;;;;-1.84;56.88;102332.68;2146105;81;20983;-80
2022/03/22 04:46:25;;;;;;;83.42;37.15;;;;;;;-1.83;56.82;102327.03;2146989;81;21838;-78
2022/03/22 04:49:28;;;;;;;85.67;38.00;;;;;;;-1.76;56.82;102329.07;2140464;80;21002;-79
2022/03/22 04:56:43;;;;;;;85.10;36.38;;;;;;;-1.82;56.90;102342.63;2138235;81;21513;-78
2022/03/22 04:58:54;;;;;;;74.00;35.90;;;;;;;-1.89;56.92;102345.37;2140285;81;21045;-78
2022/03/22 05:01:55;;;;;;;;;;;;;;;-1.90;56.93;102345.83;2141741;81;21010;-79
2022/03/22 05:04:56;;;;;;;74.10;34.78;;;;;;;-1.94;56.97;102345.50;2138331;81;20124;-78
2022/03/22 05:07:58;;;;;;;;;;;;;;;-1.96;57.09;102355.07;2146000;80;21307;-80
2022/03/22 05:10:59;;;;;;;71.17;32.90;;;;;;;-1.94;57.28;102346.80;2144566;81;20135;-78
2022/03/22 05:14:00;;;;;;;;;;;;;;;-1.91;57.37;102345.43;2144068;81;21049;-80
2022/03/22 05:17:02;;;;;;;70.32;32.58;;;;;;;-1.87;57.52;102348.36;2140905;81;20190;-78
2022/03/22 05:20:04;;;;;;;73.97;35.98;;;;;;;-1.77;58.12;102352.06;2147560;81;21610;-78
2022/03/22 05:23:06;;;;;;;92.50;40.30;;;;;;;-1.71;57.89;102348.05;2142002;81;21045;-76
2022/03/22 05:26:07;;;;;;;95.87;39.23;;;;;;;-1.47;57.86;102346.63;2139009;81;21005;-80
2022/03/22 05:29:08;;;;;;;76.33;33.73;;;;;;;-1.09;57.65;102346.19;2144185;81;21025;-77
2022/03/22 05:32:10;;;;;;;73.28;32.67;;;;;;;-0.74;57.36;102349.20;2155284;81;21015;-79
2022/03/22 05:35:11;;;;;;;69.72;34.55;;;;;;;-0.41;57.08;102351.36;2155176;81;21532;-79
2022/03/22 05:38:12;;;;;;;77.65;37.13;;;;;;;-0.10;56.80;102350.06;2160448;81;21029;-81
2022/03/22 05:41:13;;;;;;;76.92;39.58;;;;;;;0.29;56.93;102347.19;2159874;81;21085;-81
2022/03/22 05:44:17;;;;;;;83.90;41.25;;;;;;;0.91;56.80;102343.96;2155224;81;21017;-79
2022/03/22 05:47:18;;;;;;;83.33;39.42;;;;;;;1.60;56.50;102345.05;2158848;81;21487;-80
2022/03/22 05:50:19;;;;;;;75.65;38.98;;;;;;;2.12;55.76;102339.23;2156984;80;21476;-78
2022/03/22 05:53:20;;;;;;;73.57;35.88;;;;;;;2.68;55.55;102345.80;2159511;81;21081;-79
2022/03/22 05:56:21;;;;;;;;;;;;;;;3.38;54.90;102345.96;2157347;81;21016;-77
2022/03/22 05:59:22;;;;;;;75.08;38.78;;;;;;;3.80;54.38;102344.54;2156496;81;20131;-79
2022/03/22 06:02:23;;;;;;;66.02;36.93;;;;;;;4.12;53.84;102343.53;2155168;80;21009;-79
2022/03/22 06:05:25;;;;;;;71.70;36.33;;;;;;;4.53;53.55;102343.34;2158685;81;21028;-78
2022/03/22 06:08:27;;;;;;;66.60;34.55;;;;;;;5.07;53.34;102341.59;2157698;81;20999;-80
2022/03/22 06:11:33;;;;;;;66.95;36.13;;;;;;;5.59;52.45;102349.91;2152191;81;21021;-80
2022/03/22 06:14:31;;;;;;;59.77;31.20;;;;;;;6.09;51.95;102351.68;2149357;81;21506;-82
2022/03/22 06:17:32;;;;;;;57.03;31.37;;;;;;;6.62;53.16;102349.18;2155278;81;21516;-82
2022/03/22 06:20:36;;;;;;;60.60;32.50;;;;;;;7.55;51.91;102352.58;2155716;81;21580;-79
2022/03/22 06:23:37;;;;;;;58.05;32.03;;;;;;;8.28;50.27;102349.34;2153083;80;21005;-79
2022/03/22 06:26:39;;;;;;;59.40;31.27;;;;;;;8.55;49.74;102347.69;2155482;81;22321;-78
2022/03/22 06:29:40;;;;;;;61.40;31.17;;;;;;;8.71;48.60;102342.63;2152198;81;21013;-79
2022/03/22 06:32:53;;;;;;;55.88;30.35;;;;;;;8.80;48.44;102340.33;2141754;81;21002;-80
2022/03/22 06:35:55;;;;;;;54.38;30.72;;;;;;;8.90;47.27;102335.66;2138746;81;21082;-80
2022/03/22 06:38:56;;;;;;;57.65;31.10;;;;;;;9.15;46.97;102332.66;2149201;80;21423;-80
2022/03/22 06:41:58;;;;;;;52.75;31.75;;;;;;;9.30;46.42;102335.62;2146394;81;20982;-81
2022/03/22 06:45:00;;;;;;;61.80;32.65;;;;;;;9.48;45.49;102340.61;2145715;81;21034;-79
2022/03/22 06:48:01;;;;;;;60.52;32.70;;;;;;;9.57;44.75;102338.19;2140395;81;22354;-81
2022/03/22 06:51:03;;;;;;;61.15;34.83;;;;;;;9.52;43.59;102343.44;2150710;81;20998;-82
2022/03/22 06:54:04;;;;;;;62.70;32.15;;;;;;;9.45;43.60;102346.96;2144361;81;21077;-83
2022/03/22 06:57:06;;;;;;;67.12;33.70;;;;;;;9.44;42.91;102343.95;2146618;81;21220;-80
2022/03/22 07:00:11;;;;;;;66.02;34.88;;;;;;;9.46;42.36;102347.80;2146983;81;21002;-81
2022/03/22 07:03:12;;;;;;;66.75;36.30;;;;;;;9.55;41.65;102352.02;2140378;81;21030;-82
2022/03/22 07:06:14;;;;;;;67.37;35.85;;;;;;;9.71;41.70;102347.80;2135665;80;21588;-81
2022/03/22 07:09:15;;;;;;;65.17;35.85;;;;;;;9.97;40.63;102344.67;2144632;81;21009;-82
2022/03/22 07:12:16;;;;;;;66.30;36.25;;;;;;;10.19;40.69;102341.80;2139562;81;21021;-82
2022/03/22 07:15:29;;;;;;;76.17;36.85;;;;;;;10.40;40.30;102341.62;2145272;81;21572;-82
2022/03/22 07:18:30;;;;;;;73.30;39.55;;;;;;;10.75;40.18;102351.45;2149982;81;21042;-82
2022/03/22 07:21:31;;;;;;;72.62;38.95;;;;;;;10.63;39.33;102347.05;2127056;81;21488;-81
2022/03/22 07:24:33;;;;;;;73.90;38.08;;;;;;;10.43;39.07;102350.68;2140231;80;21035;-80
2022/03/22 07:27:34;;;;;;;71.02;38.33;;;;;;;10.50;38.43;102359.03;2153115;81;21011;-83
2022/03/22 07:30:36;;;;;;;72.32;38.40;;;;;;;10.64;39.14;102357.54;2135734;81;21318;-82
2022/03/22 07:33:37;;;;;;;73.83;38.58;;;;;;;10.90;38.57;102357.45;2132934;82;21009;-82
2022/03/22 07:36:39;;;;;;;75.32;40.00;;;;;;;11.07;37.81;102354.86;2135334;82;21101;-82
2022/03/22 07:39:40;;;;;;;80.40;41.77;;;;;;;11.20;37.77;102357.77;2135406;82;21048;-83
2022/03/22 07:42:41;;;;;;;81.28;43.23;;;;;;;11.18;36.65;102357.07;2141226;82;21082;-84
2022/03/22 07:45:43;;;;;;;75.87;42.40;;;;;;;11.21;37.01;102354.66;2137589;80;20999;-81
2022/03/22 07:48:44;;;;;;;83.12;43.87;;;;;;;11.19;36.58;102355.25;2128901;82;21517;-81
2022/03/22 07:55:10;;;;;;;83.27;42.20;;;;;;;11.57;36.44;102351.45;2131826;81;20995;-82
2022/03/22 07:58:11;;;;;;;79.30;41.53;;;;;;;11.70;35.25;102352.69;2135278;81;21042;-81
2022/03/22 08:01:12;;;;;;;84.32;44.10;;;;;;;11.52;34.81;102354.48;2139748;81;21456;-81
2022/03/22 08:04:14;;;;;;;76.45;42.30;;;;;;;11.48;34.66;102356.16;2134260;81;20984;-81
2022/03/22 08:07:15;;;;;;;72.95;40.40;;;;;;;11.38;35.37;102354.70;2131170;82;21026;-80
2022/03/22 08:10:16;;;;;;;73.92;42.17;;;;;;;11.48;34.59;102353.02;2136981;82;21013;-80
2022/03/22 08:13:18;;;;;;;74.47;42.05;;;;;;;11.62;35.02;102349.29;2139120;81;21016;-81
2022/03/22 08:16:19;;;;;;;76.60;41.35;;;;;;;11.85;34.43;102347.48;2131187;82;21009;-80
2022/03/22 08:19:21;;;;;;;74.07;40.85;;;;;;;12.06;35.27;102344.50;2138562;82;21036;-79
2022/03/22 08:22:22;;;;;;;75.30;41.65;;;;;;;12.39;34.34;102345.89;2133943;81;20995;-81
2022/03/22 08:25:28;;;;;;;73.33;42.23;;;;;;;12.62;34.15;102336.89;2134215;81;20997;-80
2022/03/22 08:28:29;;;;;;;73.12;39.25;;;;;;;12.77;34.46;102330.77;2128521;81;21003;-79
2022/03/22 08:31:30;;;;;;;72.03;40.55;;;;;;;12.92;33.61;102325.52;2131750;82;21007;-80
2022/03/22 08:34:32;;;;;;;72.30;40.17;;;;;;;13.27;32.84;102332.38;2140047;82;21033;-80
2022/03/22 08:37:33;;;;;;;66.10;38.30;;;;;;;13.49;32.69;102329.19;2131901;82;21052;-80
2022/03/22 08:40:34;;;;;;;63.63;36.77;;;;;;;13.27;31.22;102324.38;2134115;82;21596;-80
2022/03/22 08:43:35;;;;;;;65.92;37.08;;;;;;;13.18;32.23;102329.14;2135320;81;20993;-81
2022/03/22 08:46:37;;;;;;;71.82;37.95;;;;;;;13.15;30.99;102330.70;2137657;82;21020;-80
2022/03/22 08:49:38;;;;;;;73.20;40.38;;;;;;;13.18;31.07;102331.31;2137022;82;21087;-80
2022/03/22 08:52:40;;;;;;;64.40;37.10;;;;;;;13.28;31.54;102330.06;2136909;82;20983;-79
2022/03/22 08:55:42;;;;;;;66.12;38.48;;;;;;;13.43;30.37;102326.56;2144262;81;20985;-79
2022/03/22 08:58:44;;;;;;;69.58;40.83;;;;;;;13.41;31.22;102325.37;2136346;82;21005;-80
2022/03/22 09:01:45;;;;;;;72.27;38.63;;;;;;;13.57;31.47;102322.70;2135307;82;21053;-79
2022/03/22 09:08:06;;;;;;;66.07;37.42;;;;;;;14.07;31.30;102324.11;2135918;81;21066;-82
2022/03/22 09:11:09;;;;;;;70.55;37.35;;;;;;;14.17;31.21;102315.65;2137451;80;20998;-80
2022/03/22 09:14:11;;;;;;;57.75;32.78;;;;;;;14.43;31.50;102311.13;2133095;82;21046;-81
2022/03/22 09:17:13;;;;;;;58.92;35.95;;;;;;;14.83;30.72;102315.53;2130999;80;21500;-79
2022/03/22 09:20:15;;;;;;;63.68;34.67;;;;;;;14.80;30.80;102312.64;2131969;82;21045;-80
2022/03/22 09:23:20;;;;;;;59.80;35.55;;;;;;;14.98;31.17;102315.47;2115535;80;21005;-79
2022/03/22 09:26:22;;;;;;;61.63;34.88;;;;;;;15.18;30.14;102314.45;2134460;82;21047;-81
2022/03/22 09:29:23;;;;;;;55.17;32.35;;;;;;;15.35;30.41;102304.84;2135481;81;20997;-79
2022/03/22 09:32:25;;;;;;;53.65;31.30;;;;;;;15.53;30.03;102301.40;2154989;81;21049;-80
2022/03/22 09:35:27;;;;;;;60.17;33.67;;;;;;;15.50;29.65;102301.69;2154424;81;21065;-81
2022/03/22 09:38:28;;;;;;;56.85;33.98;;;;;;;15.50;29.22;102297.18;2154274;81;20994;-80
2022/03/22 09:41:33;;;;;;;58.80;34.27;;;;;;;15.60;29.06;102296.66;2149591;81;21020;-79
2022/03/22 09:44:35;;;;;;;56.13;34.53;;;;;;;15.75;29.37;102292.20;2156045;81;21016;-79
2022/03/22 09:47:37;;;;;;;54.85;33.28;;;;;;;16.04;29.76;102286.17;2159466;81;20954;-80
2022/03/22 09:54:00;;;;;;;52.83;33.88;;;;;;;16.16;28.14;102284.63;2155659;81;21017;-80
2022/03/22 09:57:04;;;;;;;56.63;32.80;;;;;;;16.02;28.21;102280.16;2150836;80;21025;-79
2022/03/22 10:00:09;;;;;;;51.95;30.40;;;;;;;16.02;27.30;102274.80;2161793;81;21075;-80
2022/03/22 10:03:20;;;;;;;52.00;31.25;;;;;;;15.93;27.00;102281.02;2153281;81;21700;-80
2022/03/22 10:06:22;;;;;;;55.75;32.83;;;;;;;16.11;27.79;102273.88;2153302;81;21002;-81
2022/03/22 10:09:40;;;;;;;52.55;32.33;;;;;;;16.40;28.22;102269.32;2161274;81;20996;-79
2022/03/22 10:12:39;;;;;;;61.05;30.68;;;;;;;16.73;28.21;102264.59;2145180;81;21059;-81
2022/03/22 10:15:40;;;;;;;51.73;31.68;;;;;;;16.83;28.02;102260.50;2153594;81;20965;-83
2022/03/22 10:18:41;;;;;;;50.08;31.62;;;;;;;17.21;27.78;102259.77;2155637;81;21049;-80
2022/03/22 10:21:46;;;;;;;48.68;29.63;;;;;;;17.48;27.53;102260.94;2158578;81;21038;-82
2022/03/22 10:24:55;;;;;;;47.70;28.38;;;;;;;17.63;27.17;102255.80;2151310;81;21023;-82
2022/03/22 10:27:58;;;;;;;51.33;30.55;;;;;;;17.48;26.97;102252.88;2152148;81;21478;-83
2022/03/22 10:31:00;;;;;;;47.50;28.75;;;;;;;17.56;26.93;102253.91;2150490;81;21011;-81
2022/03/22 10:34:02;;;;;;;46.45;28.67;;;;;;;17.52;26.51;102259.27;2139928;80;21102;-83
2022/03/22 10:37:04;;;;;;;44.25;28.23;;;;;;;17.42;26.55;102254.84;2148741;81;20981;-82
2022/03/22 10:40:32;;;;;;;42.45;24.37;;;;;;;17.47;26.30;102253.87;2144998;80;20999;-82
2022/03/22 10:43:36;;;;;;;41.08;26.97;;;;;;;17.56;25.32;102251.22;2144309;81;21043;-82
2022/03/22 10:46:38;;;;;;;42.85;26.33;;;;;;;17.44;25.88;102251.50;2146517;81;21009;-82
2022/03/22 10:49:40;;;;;;;39.00;26.12;;;;;;;17.45;25.58;102241.09;2147684;81;21039;-83
2022/03/22 10:52:57;;;;;;;42.95;26.48;;;;;;;17.47;25.22;102241.79;2149546;81;21013;-81
2022/03/22 10:56:02;;;;;;;39.58;25.55;;;;;;;17.35;24.93;102241.74;2148520;81;20967;-82
2022/03/22 10:59:04;;;;;;;41.58;23.30;;;;;;;17.42;25.11;102232.53;2147049;81;21048;-82
2022/03/22 11:02:06;;;;;;;40.48;25.23;;;;;;;17.50;25.22;102233.09;2152174;80;22191;-81
2022/03/22 11:05:08;;;;;;;48.35;27.45;;;;;;;17.10;24.69;102225.17;2123836;81;21033;-82
2022/03/22 11:08:10;;;;;;;39.35;25.62;;;;;;;17.09;24.91;102227.48;2146251;81;20996;-80
2022/03/22 11:11:13;;;;;;;41.70;25.20;;;;;;;17.20;25.45;102223.20;2139935;81;21009;-82
2022/03/22 11:14:16;;;;;;;40.85;25.08;;;;;;;17.23;24.91;102217.03;2149316;81;20973;-82
2022/03/22 11:17:18;;;;;;;40.70;25.60;;;;;;;17.41;24.82;102209.40;2145666;81;21049;-82
2022/03/22 11:20:24;;;;;;;39.70;25.68;;;;;;;17.53;24.89;102210.78;2140795;81;21009;-82
2022/03/22 11:23:32;;;;;;;40.88;25.35;;;;;;;17.68;24.79;102208.31;2147198;81;21013;-81
2022/03/22 11:26:48;;;;;;;39.35;25.35;;;;;;;17.85;24.95;102203.39;2143378;81;21489;-83
2022/03/22 11:29:49;;;;;;;39.75;24.85;;;;;;;17.80;24.60;102196.31;2119437;81;21031;-82
2022/03/22 11:36:19;;;;;;;39.53;23.97;;;;;;;17.93;23.39;102190.45;2144458;81;21022;-82
2022/03/22 11:42:15;;;;;;;38.63;25.80;;;;;;;17.80;24.22;102188.27;2142051;81;21050;-80
2022/03/22 11:42:26;;;;;;;41.30;24.82;;;;;;;17.85;23.60;102189.09;2136058;81;20988;-80
2022/03/22 11:45:28;;;;;;;35.13;23.50;;;;;;;17.84;24.21;102180.71;2142164;81;21019;-80
2022/03/22 11:48:31;;;;;;;36.58;24.15;;;;;;;17.87;23.81;102183.06;2136288;80;21066;-78
2022/03/22 11:51:36;;;;;;;35.98;23.07;;;;;;;17.74;23.81;102174.12;2140217;81;20988;-80
2022/03/22 11:54:37;;;;;;;40.48;24.30;;;;;;;17.70;23.93;102172.25;2139584;81;21027;-81
2022/03/22 11:57:47;;;;;;;36.68;23.90;;;;;;;17.83;23.77;102172.33;2139244;81;20990;-81
2022/03/22 12:00:58;;;;;;;38.20;23.20;;;;;;;17.80;23.80;102162.75;2142954;81;20994;-82
2022/03/22 12:03:59;;;;;;;34.92;22.17;;;;;;;17.91;23.82;102164.30;2152354;81;21029;-81
2022/03/22 12:07:02;;;;;;;38.25;24.23;;;;;;;17.95;23.95;102156.23;2115837;81;21019;-82
2022/03/22 12:10:13;;;;;;;41.25;23.57;;;;;;;17.86;23.77;102162.59;2151445;81;21604;-81
2022/03/22 12:13:15;;;;;;;33.60;22.22;;;;;;;17.99;23.65;102151.36;2145771;81;21675;-81
2022/03/22 12:16:16;;;;;;;37.83;23.07;;;;;;;18.02;23.32;102144.30;2144405;81;21078;-82
2022/03/22 12:19:27;;;;;;;32.45;20.37;;;;;;;17.95;23.47;102141.97;2142172;81;21003;-81
2022/03/22 12:22:30;;;;;;;32.88;22.00;;;;;;;18.04;22.82;102135.58;2140616;81;21007;-80
2022/03/22 12:25:34;;;;;;;34.48;21.40;;;;;;;17.76;22.94;102136.36;2140161;81;21003;-80
2022/03/22 12:28:35;;;;;;;32.83;19.98;;;;;;;17.62;23.15;102135.15;2150053;81;21051;-81
2022/03/22 12:31:36;;;;;;;33.85;21.70;;;;;;;17.62;22.92;102134.64;2146732;81;21017;-82
2022/03/22 12:34:39;;;;;;;36.85;22.52;;;;;;;17.63;22.95;102133.66;2120588;81;21596;-81
2022/03/22 12:37:40;;;;;;;32.70;21.20;;;;;;;17.59;23.14;102134.14;2147137;81;21057;-80
2022/03/22 12:40:43;;;;;;;34.05;20.77;;;;;;;17.52;22.79;102133.12;2143185;81;21514;-83
2022/03/22 12:43:45;;;;;;;32.03;19.67;;;;;;;17.47;23.29;102126.39;2148762;81;20995;-79
2022/03/22 12:46:47;;;;;;;33.23;20.05;;;;;;;17.58;22.65;102129.78;2151838;81;21490;-82
2022/03/22 12:49:49;;;;;;;28.30;18.67;;;;;;;17.60;22.94;102125.10;2150397;81;21320;-80
2022/03/22 12:52:51;;;;;;;28.52;18.57;;;;;;;17.60;22.76;102123.76;2145583;81;20979;-79
2022/03/22 12:55:53;;;;;;;27.87;19.02;;;;;;;17.54;22.99;102108.28;2145060;81;20985;-80
2022/03/22 12:58:56;;;;;;;33.35;19.57;;;;;;;17.45;21.90;102110.95;2148890;81;21487;-79
2022/03/22 13:01:58;;;;;;;20.30;13.68;;;;;;;17.37;22.67;102113.64;2130933;81;20974;-79
2022/03/22 13:05:00;;;;;;;24.12;15.32;;;;;;;17.47;22.46;102106.77;2138768;81;21514;-78
2022/03/22 13:08:03;;;;;;;29.27;16.45;;;;;;;17.67;21.95;102104.63;2150344;81;21018;-81
2022/03/22 13:17:49;;;;;;;25.25;14.53;;;;;;;17.57;21.88;102090.51;2148189;81;21792;-78
2022/03/22 13:20:52;;;;;;;23.38;15.48;;;;;;;17.48;21.08;102093.20;2148692;81;20998;-79
2022/03/22 13:24:08;;;;;;;22.45;15.65;;;;;;;17.40;21.52;102093.18;2149189;81;21048;-79
2022/03/22 13:27:10;;;;;;;25.75;15.15;;;;;;;17.47;21.58;102090.16;2156193;81;21015;-80
2022/03/22 13:30:20;;;;;;;18.20;13.43;;;;;;;17.66;20.98;102081.48;2154020;81;21007;-81
2022/03/22 13:33:21;;;;;;;21.30;13.05;;;;;;;17.55;21.12;102081.80;2153746;81;21312;-79
2022/03/22 13:36:23;;;;;;;23.50;13.38;;;;;;;17.42;20.37;102084.44;2144802;81;21049;-79
2022/03/22 13:39:24;;;;;;;19.57;12.70;;;;;;;17.37;21.12;102084.59;2143017;81;21025;-79
2022/03/22 13:42:26;;;;;;;21.68;13.50;;;;;;;17.36;20.95;102079.73;2145949;81;20999;-81
2022/03/22 13:45:28;;;;;;;22.35;13.32;;;;;;;17.41;20.91;102066.67;2143458;81;21540;-77
2022/03/22 13:48:29;;;;;;;20.82;12.68;;;;;;;17.56;20.77;102064.69;2153403;81;21006;-80
2022/03/22 13:51:34;;;;;;;18.40;12.20;;;;;;;17.51;20.37;102062.99;2148326;81;21526;-81
2022/03/22 13:54:37;;;;;;;22.13;13.15;;;;;;;17.49;20.62;102059.16;2138805;81;20996;-81
2022/03/22 13:57:39;;;;;;;18.55;12.28;;;;;;;17.53;20.70;102058.31;2135162;81;21604;-82
2022/03/22 14:00:45;;;;;;;15.58;10.90;;;;;;;17.49;20.59;102064.52;2146060;81;20991;-79
2022/03/22 14:03:48;;;;;;;18.80;11.78;;;;;;;17.55;20.48;102056.31;2147950;81;20997;-80
2022/03/22 14:06:49;;;;;;;18.15;12.05;;;;;;;17.57;20.02;102054.28;2147389;81;21053;-78
2022/03/22 14:09:50;;;;;;;18.60;12.33;;;;;;;17.57;19.88;102053.80;2149546;81;21033;-80
2022/03/22 14:12:52;;;;;;;17.35;11.57;;;;;;;17.52;19.86;102051.27;2148997;81;21023;-80
2022/03/22 14:15:55;;;;;;;18.37;12.60;;;;;;;17.45;19.99;102051.91;2149067;81;21047;-81
2022/03/22 14:18:56;;;;;;;21.40;13.62;;;;;;;17.32;20.40;102050.23;2141526;81;20998;-81
2022/03/22 14:21:58;;;;;;;19.17;12.82;;;;;;;17.24;20.25;102048.86;2142359;81;20992;-79
2022/03/22 14:24:59;;;;;;;19.98;13.03;;;;;;;17.22;20.71;102030.74;2146889;81;20998;-78
2022/03/22 14:28:03;;;;;;;19.80;13.48;;;;;;;17.23;20.82;102033.75;2142988;81;20995;-78
2022/03/22 14:31:04;;;;;;;21.00;12.90;;;;;;;17.27;20.92;102029.75;2135961;81;21065;-80
2022/03/22 14:34:06;;;;;;;19.98;13.13;;;;;;;17.29;20.89;102027.75;2121685;82;21018;-80
2022/03/22 14:37:10;;;;;;;27.50;14.55;;;;;;;17.23;20.99;102023.89;2112795;82;21001;-81